• Join FlightAware (Why Join?)
  • Login
  • US Flag 
11:51PM EDT


 

Airport Tracker/Info


-or-


 

Live Flight TrackerFlight Track Log ✈ N516QS ✈ 08-Mar-2014 ✈ KOPF - MBPV / PLS

Flight Track Log - Related Links

Times and Time Zones

All times are in EST time to prevent confusion due to time zone crossing. See the N516QS flight status page for this flight to view local times or setup timezone preferences in your user account.

Time Position Orientation Groundspeed Altitude Reporting Facility
EST Latitude Longitude Course Direction KTS MPH feet Rate Location/Type
01:21PM 25.9089 -80.2683 84° East 174 200 800  Level Miami Center
01:22PM 25.9144 -80.2131 84° East 209 241 2,200 1,380 Climbing Miami Center
01:22PM 25.9192 -80.1925 76° East 213 245 2,600 780 Climbing Miami Center
01:23PM 25.9183 -80.1394 91° East 272 313 3,000 360 Climbing Miami Center
01:23PM 25.9228 -80.1186 77° East 254 292 3,000 60 Level Miami Center
01:24PM 25.9239 -80.0678 89° East 258 297 3,100  Climbing Miami Center
01:24PM 25.9289 -80.0381 79° East 254 292 3,000 540 Descending Miami Center
01:25PM 25.9278 -79.9872 91° East 261 300 3,700 1,260 Climbing Miami Center
01:25PM 25.9325 -79.9572 80° East 264 304 4,300 1,920 Climbing Miami Center
01:26PM 25.9358 -79.9042 86° East 276 318 5,700 1,980 Climbing Miami Center
01:26PM 25.9447 -79.8719 73° East 277 319 6,300 2,160 Climbing Miami Center
01:27PM 25.9525 -79.8075 82° East 300 345 7,900 1,980 Climbing Miami Center
01:27PM 25.9592 -79.7822 74° East 308 354 8,300 1,680 Climbing Miami Center
01:28PM 25.9797 -79.6881 76° East 337 388 10,300 2,040 Climbing Miami Center
01:29PM 25.9944 -79.5797 81° East 337 388 12,400 2,340 Climbing Miami Center
01:30PM 25.9803 -79.4383 96° East 400 460 15,000 2,400 Climbing Miami Center
01:31PM 25.9636 -79.3064 98° East 430 495 17,200 2,160 Climbing Miami Center
01:32PM 25.9492 -79.1789 97° East 438 504 19,400 2,220 Climbing Miami Center
01:33PM 25.9178 -79.0419 104° East 450 518 21,700 1,920 Climbing Miami Center
01:34PM 25.8700 -78.8842 109° East 470 541 23,300 1,500 Climbing Miami Center
01:35PM 25.8300 -78.7311 106° East 495 570 24,700 1,380 Climbing Miami Center
01:36PM 25.7881 -78.5806 107° East 507 583 26,100 1,140 Climbing Miami Center
01:37PM 25.7417 -78.4253 108° East 513 590 27,000 420 Climbing Miami Center
01:38PM 25.7014 -78.2725 106° East 519 597 27,000  Level Miami Center
01:39PM 25.6592 -78.1153 107° East 519 597 27,000 240 Level Miami Center
01:40PM 25.6142 -77.9628 108° East 519 597 27,500 1,200 Climbing Miami Center
01:41PM 25.5381 -77.8261 122° Southeast 519 597 29,500 2,100 Climbing Miami Center
01:42PM 25.4572 -77.6897 123° Southeast 519 597 31,700 2,160 Climbing Miami Center
01:43PM 25.3869 -77.5419 118° Southeast 531 611 33,900 1,980 Climbing Miami Center
01:44PM 25.3228 -77.3922 115° Southeast 536 617 35,700 1,800 Climbing Miami Center
01:45PM 25.2583 -77.2356 114° Southeast 542 624 37,500 1,740 Climbing Miami Center
01:46PM 25.1919 -77.0908 117° Southeast 542 624 39,200 1,500 Climbing Miami Center
01:47PM 25.1231 -76.9414 117° Southeast 537 618 40,600 900 Climbing Miami Center
01:48PM 25.0561 -76.7900 116° Southeast 537 618 41,000 120 Climbing Miami Center
01:49PM 24.9767 -76.6503 122° Southeast 537 618 40,900  Descending Miami Center
01:50PM 24.8553 -76.5794 152° Southeast 481 554 41,000  Climbing Miami Center
01:51PM 24.7339 -76.5361 162° South 461 531 41,000  Level Miami Center
01:52PM 24.6189 -76.4953 162° South 456 525 41,000  Level Miami Center
01:53PM 24.4997 -76.4522 162° South 446 513 41,000  Level Miami Center
01:54PM 24.3931 -76.4183 164° South 446 513 41,000  Level Miami Center
01:55PM 24.2989 -76.3822 161° South 441 507 41,000  Level Miami Center
01:56PM 24.1525 -76.3328 163° South 447 514 41,000  Level Miami Center
01:57PM 24.0311 -76.2944 164° South 447 514 41,000  Level Miami Center
01:58PM 23.9117 -76.2542 163° South 453 521 41,000  Level Miami Center
01:59PM 23.7903 -76.2183 165° South 453 521 41,000  Level Miami Center
02:00PM 23.6669 -76.1783 163° South 453 521 41,000  Level Miami Center
02:01PM 23.5433 -76.1428 165° South 453 521 41,000  Level Miami Center
02:02PM 23.4242 -76.1050 164° South 453 521 41,000  Level Miami Center
02:03PM 23.3361 -76.0442 148° Southeast 453 521 41,000  Level Miami Center
02:04PM 23.2494 -75.8867 121° Southeast 458 527 41,000  Level Miami Center
02:05PM 23.1878 -75.7514 116° Southeast 482 555 41,000  Level Miami Center
02:06PM 23.1219 -75.6142 118° Southeast 497 572 41,000  Level Miami Center
02:07PM 23.0583 -75.4817 118° Southeast 497 572 41,000  Level Miami Center
02:08PM 22.9922 -75.3492 118° Southeast 497 572 41,000  Level Miami Center
02:09PM 22.9281 -75.2147 117° Southeast 497 572 41,000  Level Miami Center
02:10PM 22.8597 -75.0825 119° Southeast 497 572 41,000  Level Miami Center
02:11PM 22.7953 -74.9481 117° Southeast 497 572 41,000  Level Miami Center
02:12PM 22.7308 -74.8164 118° Southeast 497 572 41,000 -120 Level Miami Center
02:13PM 22.6644 -74.6822 118° Southeast 497 572 40,800 -420 Descending Miami Center
02:14PM 22.5975 -74.5506 119° Southeast 497 572 40,200 -720 Descending Miami Center
02:15PM 22.5436 -74.4436 119° Southeast 497 572 39,400 -1,320 Descending Miami Center
02:16PM 22.4658 -74.2833 118° Southeast 497 572 37,600 -1,920 Descending Miami Center
02:17PM 22.4011 -74.1611 120° Southeast 492 566 35,600 -2,340 Descending Miami Center
02:18PM 22.3339 -74.0322 119° Southeast 482 555 33,000 -3,300 Descending Miami Center
02:19PM 22.2753 -73.9056 117° Southeast 482 555 29,100 -3,900 Descending Miami Center
02:20PM 22.2164 -73.7836 118° Southeast 468 539 25,200 -3,600 Descending Miami Center
02:21PM 22.1578 -73.6750 120° Southeast 445 512 21,900 -3,120 Descending Miami Center
02:22PM 22.1056 -73.5711 118° Southeast 412 474 19,000 -2,820 Descending Miami Center
02:23PM 22.0531 -73.4717 120° Southeast 394 453 16,300 -2,460 Descending Miami Center
02:24PM 22.0050 -73.3744 118° Southeast 376 433 14,100 -2,100 Descending Miami Center
02:25PM 21.9592 -73.2836 119° Southeast 360 414 12,200 -1,860 Descending Miami Center
02:26PM 21.9133 -73.2000 121° Southeast 340 391 10,400 -1,140 Descending Miami Center
02:27PM 21.8736 -73.1206 118° Southeast 317 365 10,000 -240 Descending Miami Center
02:28PM 21.8300 -73.0414 121° Southeast 304 350 10,000 -120 Level Miami Center
02:29PM 21.8117 -72.9725 106° East 299 344 9,800 -240 Descending Miami Center
02:31PM 21.8000 -72.8325 90° East  Level FlightAware Approximate
02:38PM 21.7667 -72.2667 90° East  Level FlightAware Approximate
02:39PM 21.7736 -72.2659 90° East  Level Estimated
02:40PM 21.7667 -72.2667 90° East  Level FlightAware Approximate
02:41PM 21.7736 -72.2659 90° East  Level Estimated
02:42PM 21.7667 -72.2667 90° East  Level FlightAware Approximate
02:43PM 21.7736 -72.2659 90° East  Level Estimated
02:44PM 21.7667 -72.2667 90° East  Level FlightAware Approximate
02:45PM 21.7736 -72.2659 90° East  Level Estimated
02:46PM 21.7667 -72.2667 90° East  Level FlightAware Approximate
02:47PM 21.7736 -72.2659 90° East  Level Estimated
02:48PM 21.7667 -72.2667 90° East  Level FlightAware Approximate
02:49PM 21.7736 -72.2659 90° East  Level Estimated
02:50PM 21.7667 -72.2667 90° East  Level FlightAware Approximate